Terminal Aerodrome Forecast
Issued by NWS

Home | Current Version | Previous Version | Text Only | Print | Product List | Glossary On
Versions: 1 2 3 4 5 6 7 8 9 10 11 12 13 14 15 16 17 18
000
FTUS42 TJSJ 261140
TAFJBQ
TAF
TJBQ 261140Z 2612/2712 08010KT P6SM FEW030 SCT050
     FM261630 VRB10KT P6SM VCTS SCT020CB BKN040
     FM262300 10005KT P6SM SCT060
      AMD NOT SKED 2702/2711=

USA.gov is the U.S. government's official web portal to all federal, state and local government web resources and services.